Flight Track Log - Related Links

Times and Time Zones

All times are in EST time to prevent confusion due to time zone crossing. See the BOE2 flight status page for this flight to view local times or setup timezone preferences in your user account.

Time Position Orientation Groundspeed Altitude Reporting Facility
EST Latitude Longitude Course Direction KTS MPH feet Rate Location/Type
Tue 10:11:51 AM 47.4967 -122.2725 137° Southeast 182 209 1,900  Level Seattle Center
Tue 10:12:35 AM 47.4558 -122.2169 137° Southeast 275 316 5,300 4,000 Climbing Seattle Center
Tue 10:12:51 AM 47.4514 -122.1806 100° East 277 319 5,900 3,818 Climbing Seattle Center
Tue 10:13:41 AM 47.4500 -122.0892 91° East 306 352 9,500 4,230 Climbing Seattle Center
Tue 10:13:52 AM 47.4489 -122.0622 93° East 289 333 10,200 2,750 Climbing Seattle Center
Tue 10:14:53 AM 47.4403 -121.9283 95° East 338 389 12,800 2,361 Climbing Seattle Center
Tue 10:15:54 AM 47.4331 -121.7753 94° East 374 430 15,000 1,488 Climbing Seattle Center
Tue 10:16:54 AM 47.4283 -121.6114 92° East 398 458 15,800 1,686 Climbing Seattle Center
Tue 10:17:55 AM 47.4256 -121.4508 91° East 396 456 18,400 1,574 Climbing Seattle Center
Tue 10:18:56 AM 47.4225 -121.2814 91° East 415 478 19,000 295 Climbing Seattle Center
Tue 10:19:57 AM 47.4203 -121.1050 91° East 431 496 19,000  Level Seattle Center
Tue 10:20:57 AM 47.4164 -120.9236 92° East 442 509 19,000 -99 Level Seattle Center
Tue 10:21:58 AM 47.4117 -120.7183 92° East 450 518 18,800 -1,082 Descending Seattle Center
Tue 10:22:59 AM 47.4083 -120.5358 91° East 449 517 16,800 -2,066 Descending Seattle Center
Tue 10:24:00 AM 47.4033 -120.3525 92° East 429 494 14,600 -2,803 Descending Seattle Center
Tue 10:25:01 AM 47.3997 -120.1917 92° East 395 455 11,100 -1,785 Descending Seattle Center
Tue 10:26:01 AM 47.3956 -120.0603 93° East 316 364 11,000 -397 Descending Seattle Center
Tue 10:27:02 AM 47.3750 -119.9461 105° East 288 331 10,300 -1,672 Descending Seattle Center
Tue 10:28:03 AM 47.3131 -119.8781 143° Southeast 280 322 7,600 -2,951 Descending Seattle Center
Tue 10:29:04 AM 47.2494 -119.8094 144° Southeast 264 304 4,300 -1,770 Descending Seattle Center
Tue 10:30:05 AM 47.1972 -119.7586 147° Southeast 258 297 4,000 -295 Descending Seattle Center
Tue 10:32:00 AM 47.2023 -119.5717 88° East  Level Estimated
Tue 10:39:00 AM 47.2086 -119.3191 88° East  Level Estimated
Tue 10:40:00 AM 47.2086 -119.3191 13° North  Level Estimated
Tue 10:41:00 AM 47.2086 -119.3191 13° North  Level Estimated
Tue 10:42:00 AM 47.2086 -119.3191 13° North  Level Estimated
Tue 10:43:00 AM 47.2086 -119.3191 13° North  Level Estimated
Tue 10:44:00 AM 47.2086 -119.3191 13° North  Level Estimated
Tue 10:45:00 AM 47.2086 -119.3191 13° North  Level Estimated
Tue 10:46:00 AM 47.2086 -119.3191 13° North  Level Estimated
Tue 10:47:00 AM 47.2086 -119.3191 13° North  Level Estimated
Tue 10:48:00 AM 47.2086 -119.3191 13° North  Level Estimated
Tue 10:49:00 AM 47.2086 -119.3191 13° North  Level Estimated

Login

Don't have an account? Register now (free) for customized features, flight alerts, and more!